Time;durP1;ratioP1;P1;durP2;ratioP2;P2;SDS_P1;SDS_P2;PMS_P1;PMS_P2;Temp;Humidity;BMP_temperature;BMP_pressure;BME280_temperature;BME280_humidity;BME280_pressure;Samples;Min_cycle;Max_cycle;Signal;HPM_P1;HPM_P2
2021/07/16 00:01:58;;;;;;;8.45;1.95;;;16.60;91.00;;;;;;6185028;23;20020;-73
2021/07/16 00:04:25;;;;;;;9.20;3.53;;;16.60;91.10;;;;;;6192261;23;20329;-74
2021/07/16 00:06:52;;;;;;;6.07;2.35;;;16.60;91.50;;;;;;6220218;23;20062;-73
2021/07/16 00:09:22;;;;;;;8.77;2.85;;;16.60;91.50;;;;;;6193229;23;20075;-73
2021/07/16 00:11:50;;;;;;;5.57;2.70;;;16.60;91.60;;;;;;6220760;23;20311;-73
2021/07/16 00:14:17;;;;;;;7.05;2.50;;;16.60;91.70;;;;;;6218603;23;20051;-74
2021/07/16 00:16:44;;;;;;;6.43;2.72;;;16.70;91.10;;;;;;6190624;23;20044;-74
2021/07/16 00:19:12;;;;;;;8.10;2.83;;;16.60;90.90;;;;;;6218329;23;20071;-73
2021/07/16 00:21:39;;;;;;;4.82;2.25;;;16.60;91.30;;;;;;6217510;23;20017;-73
2021/07/16 00:24:06;;;;;;;5.00;2.33;;;16.60;91.40;;;;;;6217476;23;20040;-74
2021/07/16 00:26:33;;;;;;;4.20;2.25;;;16.60;91.30;;;;;;6189458;23;20055;-73
2021/07/16 00:29:02;;;;;;;9.25;2.67;;;16.60;91.10;;;;;;6191841;23;20040;-74
2021/07/16 00:31:30;;;;;;;6.78;2.80;;;16.70;91.00;;;;;;6218874;23;20076;-74
2021/07/16 00:33:57;;;;;;;5.18;1.90;;;16.70;91.00;;;;;;6190341;23;20324;-74
2021/07/16 00:36:25;;;;;;;4.22;1.38;;;16.70;90.60;;;;;;6194089;23;20051;-74
2021/07/16 00:38:52;;;;;;;3.63;1.40;;;16.60;90.70;;;;;;6192938;23;20032;-74
2021/07/16 00:41:19;;;;;;;4.22;1.40;;;16.70;90.50;;;;;;6219790;23;20055;-74
2021/07/16 00:43:46;;;;;;;2.28;1.20;;;16.70;90.10;;;;;;6221522;23;20033;-74
2021/07/16 00:46:15;;;;;;;3.70;1.60;;;16.80;90.00;;;;;;6220364;23;20193;-74
2021/07/16 00:48:42;;;;;;;4.38;1.90;;;16.80;90.00;;;;;;6194133;23;20025;-74
2021/07/16 00:51:10;;;;;;;4.85;2.70;;;16.70;90.40;;;;;;6219042;23;20043;-74
2021/07/16 00:53:38;;;;;;;7.00;2.83;;;16.80;90.70;;;;;;6220353;23;20051;-74
2021/07/16 00:56:05;;;;;;;6.68;3.05;;;16.80;91.20;;;;;;6194181;23;20374;-74
2021/07/16 00:58:33;;;;;;;8.15;2.85;;;16.90;91.40;;;;;;6219728;23;20059;-74
2021/07/16 01:01:00;;;;;;;7.05;2.80;;;16.80;90.90;;;;;;6185883;23;20044;-73
2021/07/16 01:03:33;;;;;;;5.82;2.58;;;16.90;90.90;;;;;;6193096;23;20028;-74
2021/07/16 01:06:01;;;;;;;7.68;2.33;;;16.80;91.00;;;;;;6220446;23;20024;-75
2021/07/16 01:08:33;;;;;;;5.10;2.65;;;16.80;90.80;;;;;;6219275;23;20369;-75
2021/07/16 01:11:00;;;;;;;7.15;2.47;;;16.70;91.00;;;;;;6221506;23;20020;-74
2021/07/16 01:13:29;;;;;;;7.00;2.47;;;16.80;91.20;;;;;;6222390;23;20024;-74
2021/07/16 01:15:56;;;;;;;6.85;2.42;;;16.80;90.70;;;;;;6218745;23;20040;-74
2021/07/16 01:18:24;;;;;;;4.47;2.28;;;16.80;90.80;;;;;;6218746;23;20048;-74
2021/07/16 01:20:54;;;;;;;5.72;2.60;;;16.80;90.80;;;;;;6215718;23;20024;-74
2021/07/16 01:23:24;;;;;;;5.65;2.55;;;16.70;90.90;;;;;;6188782;23;20048;-73
2021/07/16 01:25:54;;;;;;;7.30;2.55;;;16.70;91.00;;;;;;6215711;23;20017;-74
2021/07/16 01:28:22;;;;;;;7.22;2.80;;;16.70;91.20;;;;;;6216990;23;20055;-74
2021/07/16 01:30:53;;;;;;;6.57;3.22;;;16.70;91.20;;;;;;6189992;23;20035;-74
2021/07/16 01:33:21;;;;;;;6.47;3.00;;;16.60;91.30;;;;;;6218328;23;20024;-74
2021/07/16 01:35:49;;;;;;;4.57;2.05;;;16.60;91.60;;;;;;6191399;23;20035;-73
2021/07/16 01:38:16;;;;;;;4.95;2.20;;;16.60;91.60;;;;;;6217574;23;20098;-74
2021/07/16 01:40:46;;;;;;;6.53;2.78;;;16.70;91.50;;;;;;6216953;23;20231;-74
2021/07/16 01:43:13;;;;;;;4.18;2.08;;;16.70;91.30;;;;;;6217319;23;20024;-74
2021/07/16 01:45:45;;;;;;;5.32;2.95;;;16.60;91.10;;;;;;6218656;23;20016;-73
2021/07/16 01:48:15;;;;;;;4.40;2.15;;;16.60;91.10;;;;;;6188374;23;20028;-74
2021/07/16 01:50:45;;;;;;;4.45;2.17;;;16.60;91.40;;;;;;6187255;23;20335;-73
2021/07/16 01:53:13;;;;;;;8.68;2.60;;;16.50;91.50;;;;;;6215398;23;20024;-73
2021/07/16 01:55:41;;;;;;;5.00;2.17;;;16.50;91.80;;;;;;6215228;23;20040;-74
2021/07/16 01:58:10;;;;;;;4.90;2.42;;;16.50;91.80;;;;;;6189709;23;20029;-74
2021/07/16 02:00:39;;;;;;;4.18;1.90;;;16.50;92.20;;;;;;6209989;23;20027;-73
2021/07/16 02:03:08;;;;;;;8.38;2.53;;;16.50;91.90;;;;;;6190375;23;20048;-75
2021/07/16 02:05:37;;;;;;;3.38;1.85;;;16.60;91.70;;;;;;6219968;23;20024;-74
2021/07/16 02:08:07;;;;;;;3.80;2.00;;;16.60;91.30;;;;;;6216011;23;20046;-74
2021/07/16 02:10:36;;;;;;;4.63;2.08;;;16.50;91.30;;;;;;6218109;23;20059;-74
2021/07/16 02:13:04;;;;;;;4.20;2.03;;;16.40;91.50;;;;;;6189764;23;20048;-74
2021/07/16 02:15:36;;;;;;;4.18;1.60;;;16.40;91.70;;;;;;6218616;23;20024;-74
2021/07/16 02:18:03;;;;;;;3.83;1.80;;;16.40;91.40;;;;;;6214874;23;20070;-74
2021/07/16 02:20:32;;;;;;;4.28;1.80;;;16.50;91.20;;;;;;6189559;23;20024;-74
2021/07/16 02:23:01;;;;;;;3.53;1.75;;;16.50;91.00;;;;;;6218175;23;20380;-74
2021/07/16 02:25:31;;;;;;;6.07;1.92;;;16.50;90.90;;;;;;6216128;23;20024;-74
2021/07/16 02:27:59;;;;;;;3.63;1.60;;;16.60;90.50;;;;;;6216615;23;20336;-73
2021/07/16 02:30:28;;;;;;;3.83;1.98;;;16.30;90.80;;;;;;6218649;23;20012;-74
2021/07/16 02:32:58;;;;;;;4.05;2.00;;;16.40;91.20;;;;;;6213696;23;20059;-74
2021/07/16 02:35:26;;;;;;;4.47;2.05;;;16.50;90.80;;;;;;6216206;23;20040;-74
2021/07/16 02:37:54;;;;;;;3.38;1.77;;;16.50;90.90;;;;;;6217659;23;20201;-73
2021/07/16 02:40:22;;;;;;;2.95;1.48;;;16.40;90.70;;;;;;6218158;23;20324;-73
2021/07/16 02:42:49;;;;;;;3.60;1.85;;;16.30;90.80;;;;;;6220056;23;20024;-73
2021/07/16 02:45:19;;;;;;;4.65;2.15;;;16.30;90.80;;;;;;6191631;23;20359;-74
2021/07/16 02:47:47;;;;;;;4.88;2.30;;;16.30;90.90;;;;;;6219063;23;20032;-74
2021/07/16 02:50:19;;;;;;;5.80;2.33;;;16.30;91.00;;;;;;6217849;23;20339;-74
2021/07/16 02:52:46;;;;;;;4.93;2.40;;;16.40;91.10;;;;;;6219979;23;20025;-74
2021/07/16 02:55:14;;;;;;;5.20;2.50;;;16.40;90.90;;;;;;6217793;23;20021;-74
2021/07/16 02:57:41;;;;;;;6.18;3.17;;;16.50;90.70;;;;;;6218904;23;20031;-74
2021/07/16 03:00:11;;;;;;;6.75;2.42;;;16.40;90.60;;;;;;6187734;23;20039;-75
2021/07/16 03:02:42;;;;;;;4.47;2.38;;;16.30;90.80;;;;;;6219578;23;20017;-74
2021/07/16 03:05:11;;;;;;;5.10;2.65;;;16.30;91.10;;;;;;6217411;23;20232;-74
2021/07/16 03:07:40;;;;;;;5.82;2.50;;;16.40;91.00;;;;;;6216726;23;20201;-74
2021/07/16 03:10:08;;;;;;;5.13;2.55;;;16.30;91.30;;;;;;6189030;23;20292;-74
2021/07/16 03:12:36;;;;;;;6.47;2.75;;;16.30;91.30;;;;;;6216482;23;20228;-74
2021/07/16 03:15:07;;;;;;;5.80;2.85;;;16.20;91.60;;;;;;6217300;23;20031;-74
2021/07/16 03:17:34;;;;;;;5.57;2.92;;;16.20;91.30;;;;;;6190126;23;20301;-74
2021/07/16 03:20:01;;;;;;;4.85;2.28;;;16.30;91.20;;;;;;6217425;23;20013;-74
2021/07/16 03:22:28;;;;;;;6.95;3.42;;;16.30;90.90;;;;;;6191030;23;20347;-74
2021/07/16 03:24:57;;;;;;;6.68;3.22;;;16.30;90.60;;;;;;6216385;23;20024;-74
2021/07/16 03:27:24;;;;;;;5.05;2.50;;;16.30;90.30;;;;;;6184701;23;20248;-74
2021/07/16 03:29:51;;;;;;;5.18;2.88;;;16.30;90.20;;;;;;6185737;23;20025;-74
2021/07/16 03:32:18;;;;;;;6.55;2.92;;;16.30;90.10;;;;;;6187287;23;20025;-73
2021/07/16 03:34:46;;;;;;;5.43;2.70;;;16.30;90.40;;;;;;6187407;23;20236;-74
2021/07/16 03:37:13;;;;;;;5.65;3.10;;;16.20;90.70;;;;;;6184037;23;20332;-74
2021/07/16 03:39:40;;;;;;;7.30;3.38;;;16.10;90.90;;;;;;6185779;23;20409;-74
2021/07/16 03:42:09;;;;;;;6.22;3.17;;;16.10;91.20;;;;;;6185936;23;20084;-74
2021/07/16 03:44:36;;;;;;;5.55;2.80;;;16.20;91.20;;;;;;6184159;23;20029;-74
2021/07/16 03:47:03;;;;;;;9.65;3.40;;;16.20;90.90;;;;;;6184574;23;20031;-74
2021/07/16 03:49:31;;;;;;;6.95;3.60;;;16.20;90.90;;;;;;6184328;23;20024;-74
2021/07/16 03:51:58;;;;;;;6.55;3.40;;;16.10;91.00;;;;;;6182082;23;20036;-74
2021/07/16 03:54:25;;;;;;;7.50;3.03;;;16.20;90.70;;;;;;6183833;23;20232;-74
2021/07/16 03:56:52;;;;;;;7.32;3.25;;;16.10;91.10;;;;;;6186962;23;20044;-74
2021/07/16 03:59:21;;;;;;;7.85;3.13;;;16.10;91.40;;;;;;6185650;23;20036;-74
2021/07/16 04:01:49;;;;;;;6.72;2.90;;;16.10;91.70;;;;;;6184773;23;20029;-74
2021/07/16 04:04:16;;;;;;;5.78;2.42;;;16.10;91.70;;;;;;6187494;23;20032;-74
2021/07/16 04:06:51;;;;;;;5.72;2.30;;;16.10;91.50;;;;;;6185425;23;20025;-74
2021/07/16 04:09:27;;;;;;;6.47;2.83;;;16.10;91.00;;;;;;6186156;23;20017;-74
2021/07/16 04:12:09;;;;;;;7.13;3.08;;;16.10;91.30;;;;;;6187168;23;20352;-74
2021/07/16 04:14:39;;;;;;;6.65;2.92;;;16.10;91.50;;;;;;6186643;23;20025;-74
2021/07/16 04:17:10;;;;;;;5.45;2.28;;;16.10;91.70;;;;;;6188166;23;20036;-74
2021/07/16 04:19:38;;;;;;;5.25;2.35;;;16.10;91.60;;;;;;6187778;23;20028;-74
2021/07/16 04:22:06;;;;;;;8.48;3.03;;;16.20;91.30;;;;;;6187952;23;20032;-75
2021/07/16 04:24:35;;;;;;;6.07;3.15;;;16.20;91.30;;;;;;6188091;23;20029;-74
2021/07/16 04:27:02;;;;;;;9.88;3.58;;;16.20;91.70;;;;;;6208968;23;20024;-74
2021/07/16 04:29:29;;;;;;;5.18;2.70;;;16.30;91.20;;;;;;6190698;23;20035;-74
2021/07/16 04:32:00;;;;;;;5.35;2.75;;;16.20;91.20;;;;;;6219178;23;20025;-74
2021/07/16 04:34:31;;;;;;;6.32;2.80;;;16.30;91.30;;;;;;6219393;23;20029;-75
2021/07/16 04:36:59;;;;;;;5.22;2.63;;;16.40;90.40;;;;;;6190568;23;20021;-74
2021/07/16 04:39:27;;;;;;;7.20;3.72;;;16.30;90.80;;;;;;6217080;23;20016;-74
2021/07/16 04:41:55;;;;;;;5.13;2.78;;;16.30;90.90;;;;;;6220320;23;20025;-74
2021/07/16 04:44:22;;;;;;;6.43;3.03;;;16.40;91.00;;;;;;6217541;23;20031;-74
2021/07/16 04:46:50;;;;;;;7.47;3.60;;;16.60;90.50;;;;;;6215300;23;20040;-75
2021/07/16 04:49:19;;;;;;;6.13;3.15;;;16.60;90.00;;;;;;6193313;23;20374;-74
2021/07/16 04:51:46;;;;;;;6.88;3.10;;;16.60;89.60;;;;;;6216811;23;20027;-74
2021/07/16 04:54:16;;;;;;;5.32;3.08;;;16.60;89.60;;;;;;6214043;23;20025;-74
2021/07/16 04:56:44;;;;;;;6.82;2.83;;;16.60;89.60;;;;;;6189605;23;20021;-74
2021/07/16 04:59:11;;;;;;;7.22;3.40;;;16.60;89.40;;;;;;6214717;23;20031;-74
2021/07/16 05:01:38;;;;;;;6.05;2.92;;;16.60;89.50;;;;;;6183623;23;20024;-75
2021/07/16 05:04:06;;;;;;;7.85;3.17;;;16.70;89.30;;;;;;6215484;23;20347;-74
2021/07/16 05:06:34;;;;;;;7.38;3.20;;;16.70;88.90;;;;;;6215909;23;20036;-74
2021/07/16 05:09:02;;;;;;;8.10;3.95;;;16.70;88.50;;;;;;6214644;23;20017;-74
2021/07/16 05:11:30;;;;;;;6.50;3.72;;;16.70;88.50;;;;;;6215801;23;20040;-74
2021/07/16 05:13:58;;;;;;;7.10;3.53;;;16.70;88.70;;;;;;6215300;23;20032;-74
2021/07/16 05:16:26;;;;;;;7.60;3.78;;;16.60;88.40;;;;;;6214897;23;20123;-74
2021/07/16 05:18:53;;;;;;;7.38;3.70;;;16.60;88.90;;;;;;6214700;23;20058;-74
2021/07/16 05:21:20;;;;;;;7.05;3.25;;;16.60;89.20;;;;;;6185964;23;20025;-74
2021/07/16 05:23:48;;;;;;;7.00;3.58;;;16.50;89.10;;;;;;6188125;23;20044;-75
2021/07/16 05:26:16;;;;;;;6.97;3.65;;;16.60;88.90;;;;;;6189536;23;20025;-74
2021/07/16 05:28:44;;;;;;;7.85;4.03;;;16.70;88.80;;;;;;6213597;23;20328;-73
2021/07/16 05:31:12;;;;;;;9.50;3.75;;;16.70;88.70;;;;;;6214041;23;20195;-75
2021/07/16 05:33:39;;;;;;;7.45;3.75;;;16.70;89.00;;;;;;6216732;23;20025;-74
2021/07/16 05:36:08;;;;;;;8.55;3.72;;;16.70;89.00;;;;;;6186983;23;20039;-74
2021/07/16 05:38:37;;;;;;;6.60;3.20;;;16.60;89.00;;;;;;6213752;23;20277;-74
2021/07/16 05:41:07;;;;;;;7.38;3.58;;;16.80;88.60;;;;;;6189514;23;20355;-74
2021/07/16 05:43:37;;;;;;;8.45;3.47;;;16.70;88.50;;;;;;6189880;23;20236;-74
2021/07/16 05:46:05;;;;;;;6.47;3.08;;;16.80;88.70;;;;;;6215872;23;20024;-74
2021/07/16 05:48:32;;;;;;;7.20;3.40;;;17.00;88.20;;;;;;6190499;23;20035;-74
2021/07/16 05:51:01;;;;;;;8.15;3.72;;;17.00;88.10;;;;;;6216696;23;20200;-73
2021/07/16 05:53:34;;;;;;;6.85;3.20;;;17.10;87.80;;;;;;6216870;23;20024;-73
2021/07/16 05:56:01;;;;;;;8.20;3.88;;;17.50;87.40;;;;;;6190667;23;20063;-74
2021/07/16 05:58:31;;;;;;;9.52;3.67;;;17.60;86.10;;;;;;6215173;23;20308;-74
2021/07/16 06:00:58;;;;;;;6.57;3.50;;;17.60;86.10;;;;;;6187149;23;20326;-73
2021/07/16 06:03:25;;;;;;;6.65;3.25;;;17.60;86.20;;;;;;6218748;23;20016;-73
2021/07/16 06:05:52;;;;;;;6.47;3.30;;;17.70;85.80;;;;;;6217110;23;20025;-74
2021/07/16 06:08:20;;;;;;;6.22;2.70;;;17.70;85.60;;;;;;6190986;23;20107;-74
2021/07/16 06:10:47;;;;;;;6.80;2.92;;;17.80;85.30;;;;;;6217986;23;20016;-73
2021/07/16 06:13:14;;;;;;;4.72;2.40;;;17.90;84.80;;;;;;6216462;23;20032;-75
2021/07/16 06:15:42;;;;;;;6.03;2.72;;;18.00;85.00;;;;;;6218034;23;20047;-74
2021/07/16 06:18:10;;;;;;;6.65;2.97;;;18.30;84.20;;;;;;6216684;23;20051;-74
2021/07/16 06:20:38;;;;;;;6.13;2.90;;;18.30;84.40;;;;;;6189063;23;20024;-74
2021/07/16 06:23:05;;;;;;;6.47;2.60;;;18.40;83.60;;;;;;6217715;23;20055;-74
2021/07/16 06:25:32;;;;;;;5.28;2.63;;;18.30;84.40;;;;;;6215481;23;20051;-74
2021/07/16 06:28:01;;;;;;;5.63;2.50;;;18.20;84.00;;;;;;6218737;23;20119;-74
2021/07/16 06:30:30;;;;;;;5.40;2.53;;;18.30;83.70;;;;;;6218381;23;20304;-74
2021/07/16 06:32:58;;;;;;;4.70;2.17;;;18.50;84.00;;;;;;6217326;23;20039;-75
2021/07/16 06:35:25;;;;;;;7.55;2.42;;;18.90;82.90;;;;;;6215926;23;20047;-74
2021/07/16 06:37:53;;;;;;;4.93;2.30;;;19.10;82.10;;;;;;6188086;23;20044;-74
2021/07/16 06:40:20;;;;;;;5.90;2.13;;;19.40;81.30;;;;;;6215887;23;20031;-74
2021/07/16 06:42:48;;;;;;;4.93;2.70;;;19.60;80.40;;;;;;6187878;23;20088;-74
2021/07/16 06:45:15;;;;;;;4.78;2.30;;;19.90;80.10;;;;;;6212026;23;20208;-74
2021/07/16 06:47:42;;;;;;;5.00;2.33;;;19.90;79.50;;;;;;6187836;23;20043;-75
2021/07/16 06:50:12;;;;;;;6.13;2.22;;;20.10;79.20;;;;;;6188583;23;20027;-74
2021/07/16 06:52:39;;;;;;;4.50;2.03;;;20.30;78.60;;;;;;6214407;23;20347;-74
2021/07/16 06:55:09;;;;;;;4.22;2.17;;;20.60;77.80;;;;;;6185010;23;20321;-74
2021/07/16 06:57:36;;;;;;;5.68;2.13;;;20.60;76.70;;;;;;6186410;23;20044;-74
2021/07/16 07:00:04;;;;;;;5.68;2.20;;;20.70;77.70;;;;;;6212445;23;20036;-74
2021/07/16 07:02:32;;;;;;;4.75;2.50;;;20.70;77.10;;;;;;6189559;23;20051;-74
2021/07/16 07:04:59;;;;;;;3.72;2.15;;;20.70;76.90;;;;;;6188573;23;20028;-74
2021/07/16 07:07:28;;;;;;;4.30;2.50;;;20.90;77.10;;;;;;6187286;23;20300;-75
2021/07/16 07:09:55;;;;;;;3.88;2.08;;;21.00;76.90;;;;;;6212537;23;20025;-74
2021/07/16 07:12:22;;;;;;;6.22;2.20;;;20.70;77.30;;;;;;6187554;23;20017;-75
2021/07/16 07:14:52;;;;;;;4.93;2.30;;;20.60;77.50;;;;;;6186338;23;20048;-75
2021/07/16 07:17:19;;;;;;;3.70;2.15;;;20.60;78.10;;;;;;6187214;23;20028;-75
2021/07/16 07:19:46;;;;;;;4.28;2.28;;;20.30;78.00;;;;;;6187758;23;20296;-74
2021/07/16 07:22:13;;;;;;;4.13;2.08;;;20.40;78.60;;;;;;6213780;23;20036;-75
2021/07/16 07:24:42;;;;;;;4.38;2.50;;;20.40;78.40;;;;;;6187043;23;20087;-75
2021/07/16 07:27:09;;;;;;;5.10;2.00;;;20.40;78.30;;;;;;6215397;23;20189;-75
2021/07/16 07:29:36;;;;;;;4.82;2.03;;;20.60;78.60;;;;;;6217896;23;20032;-75
2021/07/16 07:32:04;;;;;;;8.50;2.90;;;20.70;78.00;;;;;;6221300;23;20021;-75
2021/07/16 07:34:31;;;;;;;3.20;2.03;;;20.90;77.80;;;;;;6220353;23;20028;-75
2021/07/16 07:36:58;;;;;;;4.97;1.95;;;20.60;78.40;;;;;;6190174;23;20332;-75
2021/07/16 07:39:26;;;;;;;6.53;2.00;;;20.80;78.30;;;;;;6218255;23;20024;-74
2021/07/16 07:41:54;;;;;;;6.55;2.38;;;21.20;77.00;;;;;;6218631;23;20040;-74
2021/07/16 07:44:21;;;;;;;5.78;2.55;;;21.60;76.20;;;;;;6218868;23;20020;-74
2021/07/16 07:46:49;;;;;;;4.72;2.45;;;21.50;76.20;;;;;;6221040;23;20020;-74
2021/07/16 07:49:16;;;;;;;7.63;2.30;;;21.50;76.80;;;;;;6190076;23;20026;-74
2021/07/16 07:51:44;;;;;;;8.07;2.75;;;21.60;76.20;;;;;;6218810;23;20036;-74
2021/07/16 07:54:11;;;;;;;4.93;2.33;;;22.10;75.10;;;;;;6193525;23;20398;-75
2021/07/16 07:56:39;;;;;;;4.20;2.22;;;22.20;74.80;;;;;;6217502;23;20032;-74
2021/07/16 07:59:08;;;;;;;6.72;2.92;;;22.40;74.50;;;;;;6218580;23;20025;-75
2021/07/16 08:01:36;;;;;;;6.82;2.80;;;22.60;73.70;;;;;;6209080;23;20020;-74
2021/07/16 08:04:05;;;;;;;5.22;2.65;;;22.70;73.10;;;;;;6186520;23;20021;-74
2021/07/16 08:06:32;;;;;;;6.75;2.45;;;22.80;73.60;;;;;;6215427;23;20076;-75
2021/07/16 08:09:00;;;;;;;7.45;2.60;;;23.10;73.00;;;;;;6190786;23;20060;-73
2021/07/16 08:11:31;;;;;;;8.75;3.17;;;23.40;72.20;;;;;;6221816;23;20013;-74
2021/07/16 08:13:58;;;;;;;;;;;23.60;71.40;;;;;;6195482;23;20028;-74
2021/07/16 08:16:27;;;;;;;5.95;2.90;;;23.60;71.50;;;;;;6195305;23;19927;-74
2021/07/16 08:18:57;;;;;;;5.90;2.97;;;23.70;71.30;;;;;;6193724;23;20034;-74
2021/07/16 08:21:24;;;;;;;8.00;4.03;;;23.50;71.20;;;;;;6221450;23;20220;-75
2021/07/16 08:23:52;;;;;;;7.63;3.33;;;23.60;71.50;;;;;;6191251;23;20227;-75
2021/07/16 08:26:19;;;;;;;8.68;4.00;;;23.30;73.30;;;;;;6221945;23;20297;-74
2021/07/16 08:28:47;;;;;;;10.23;4.25;;;23.50;72.40;;;;;;6221262;23;20016;-75
2021/07/16 08:31:14;;;;;;;9.30;3.95;;;23.50;72.50;;;;;;6218938;23;20021;-74
2021/07/16 08:33:42;;;;;;;6.68;3.20;;;23.70;71.10;;;;;;6192252;23;20415;-75
2021/07/16 08:36:10;;;;;;;8.25;3.75;;;24.00;69.70;;;;;;6192478;23;20020;-75
2021/07/16 08:38:37;;;;;;;5.72;3.00;;;24.10;70.90;;;;;;6192439;23;20039;-75
2021/07/16 08:41:04;;;;;;;6.85;2.88;;;24.00;70.00;;;;;;6219139;23;20022;-75
2021/07/16 08:43:35;;;;;;;7.45;3.67;;;24.20;70.00;;;;;;6219347;23;20058;-75
2021/07/16 08:46:03;;;;;;;8.13;4.15;;;24.30;69.10;;;;;;6192105;23;20198;-75
2021/07/16 08:48:32;;;;;;;9.55;3.80;;;24.40;69.50;;;;;;6191760;23;20028;-75
2021/07/16 08:51:01;;;;;;;6.05;3.03;;;24.20;69.30;;;;;;6190273;23;20136;-75
2021/07/16 08:53:33;;;;;;;12.98;4.25;;;24.40;68.20;;;;;;6219393;23;20024;-74
2021/07/16 08:56:00;;;;;;;9.07;4.18;;;24.50;68.90;;;;;;6192344;23;20328;-74
2021/07/16 08:58:27;;;;;;;6.50;3.60;;;24.50;68.00;;;;;;6192000;23;20335;-74
2021/07/16 09:00:55;;;;;;;6.95;3.88;;;24.50;68.00;;;;;;6210340;23;20335;-74
2021/07/16 09:03:22;;;;;;;5.85;3.30;;;24.70;67.00;;;;;;6189676;23;20312;-74
2021/07/16 09:05:49;;;;;;;8.88;4.75;;;25.00;65.90;;;;;;6215714;23;20048;-75
2021/07/16 09:08:19;;;;;;;8.82;4.60;;;25.10;65.90;;;;;;6194419;23;20044;-75
2021/07/16 09:10:48;;;;;;;7.57;4.00;;;25.40;65.10;;;;;;6191329;23;20036;-75
2021/07/16 09:13:17;;;;;;;7.07;3.50;;;25.60;64.30;;;;;;6192103;23;20028;-75
2021/07/16 09:15:49;;;;;;;8.65;4.32;;;25.50;64.70;;;;;;6218740;23;20031;-75
2021/07/16 09:18:21;;;;;;;6.43;3.63;;;25.50;65.00;;;;;;6220030;23;20020;-77
2021/07/16 09:20:50;;;;;;;8.25;4.13;;;25.50;64.60;;;;;;6188781;23;20046;-76
2021/07/16 09:23:22;;;;;;;8.43;4.63;;;25.70;64.20;;;;;;6220596;23;20024;-76
2021/07/16 09:26:06;;;;;;;6.53;3.47;;;25.70;63.60;;;;;;6190434;23;20028;-76
2021/07/16 09:28:34;;;;;;;7.13;4.40;;;25.40;64.50;;;;;;6216499;23;20035;-76
2021/07/16 09:31:16;;;;;;;8.93;4.75;;;25.50;65.20;;;;;;6193754;23;20022;-75
2021/07/16 09:33:51;;;;;;;7.70;4.38;;;25.20;65.30;;;;;;6220314;23;20029;-75
2021/07/16 09:36:31;;;;;;;9.95;4.78;;;25.20;65.60;;;;;;6190544;23;20059;-75
2021/07/16 09:39:05;;;;;;;10.98;4.22;;;25.10;65.40;;;;;;6193562;23;20029;-75
2021/07/16 09:41:33;;;;;;;7.50;4.25;;;24.90;66.40;;;;;;6217616;23;20487;-75
2021/07/16 09:44:02;;;;;;;7.70;4.50;;;25.00;65.20;;;;;;6216138;23;20016;-75
2021/07/16 09:46:31;;;;;;;7.35;4.47;;;25.10;65.30;;;;;;6220676;23;20025;-74
2021/07/16 09:49:12;;;;;;;7.15;4.50;;;25.10;65.60;;;;;;6220791;23;20197;-75
2021/07/16 09:51:41;;;;;;;7.18;3.88;;;25.30;64.10;;;;;;6219814;23;20068;-75
2021/07/16 09:54:14;;;;;;;7.57;4.35;;;25.50;64.20;;;;;;6193119;23;20028;-75
2021/07/16 09:56:41;;;;;;;7.03;3.45;;;25.70;63.90;;;;;;6220009;23;20031;-75
2021/07/16 09:59:10;;;;;;;6.55;3.75;;;26.20;62.00;;;;;;6219070;23;20025;-75
2021/07/16 10:01:39;;;;;;;6.85;3.80;;;26.40;61.70;;;;;;6216102;23;20327;-75
2021/07/16 10:04:08;;;;;;;7.82;3.38;;;26.60;61.20;;;;;;6217680;23;20031;-74
2021/07/16 10:06:36;;;;;;;6.25;3.97;;;26.80;60.20;;;;;;6192269;23;20063;-74
2021/07/16 10:09:04;;;;;;;9.20;4.28;;;27.10;59.10;;;;;;6218716;23;20157;-74
2021/07/16 10:11:33;;;;;;;6.47;3.88;;;27.60;57.80;;;;;;6189463;23;20024;-74
2021/07/16 10:14:01;;;;;;;8.13;4.38;;;27.50;57.20;;;;;;6190077;23;20035;-75
2021/07/16 10:16:35;;;;;;;7.82;4.68;;;27.60;56.70;;;;;;6218786;23;20123;-75
2021/07/16 10:19:03;;;;;;;6.47;3.83;;;28.10;55.50;;;;;;6216045;23;20024;-75
2021/07/16 10:21:35;;;;;;;6.60;3.90;;;28.60;54.30;;;;;;6215020;23;20075;-74
2021/07/16 10:24:02;;;;;;;8.55;4.22;;;28.90;52.60;;;;;;6214516;23;20076;-73
2021/07/16 10:26:32;;;;;;;;;;;28.90;53.50;;;;;;6214451;23;20024;-74
2021/07/16 10:29:00;;;;;;;8.13;3.47;;;28.80;53.20;;;;;;6215436;23;19919;-73
2021/07/16 10:31:41;;;;;;;5.80;3.50;;;29.20;52.40;;;;;;6190303;23;20024;-73
2021/07/16 10:34:32;;;;;;;6.72;3.80;;;29.00;52.00;;;;;;6216663;23;20324;-73
2021/07/16 10:37:02;;;;;;;6.22;3.60;;;28.70;52.50;;;;;;6189806;23;20305;-73
2021/07/16 10:39:49;;;;;;;9.43;3.72;;;28.20;54.10;;;;;;6218016;23;20030;-74
2021/07/16 10:42:45;;;;;;;8.25;3.80;;;29.30;52.30;;;;;;6216907;23;20027;-73
2021/07/16 10:45:14;;;;;;;6.63;3.55;;;30.90;46.30;;;;;;6216179;23;20031;-73
2021/07/16 10:47:47;;;;;;;8.85;3.63;;;30.50;48.00;;;;;;6217921;23;20024;-74
2021/07/16 10:50:16;;;;;;;5.88;3.15;;;30.60;46.90;;;;;;6217640;23;20071;-73
2021/07/16 10:52:45;;;;;;;7.38;3.10;;;29.70;50.00;;;;;;6217122;23;20232;-74
2021/07/16 10:55:14;;;;;;;5.93;2.90;;;30.50;49.10;;;;;;6216650;23;20039;-73
2021/07/16 10:57:44;;;;;;;5.38;3.40;;;30.40;48.50;;;;;;6188947;23;20035;-73
2021/07/16 11:00:14;;;;;;;7.15;3.92;;;29.70;49.60;;;;;;6184282;23;20032;-73
2021/07/16 11:02:47;;;;;;;5.50;3.25;;;28.90;51.00;;;;;;6217364;23;20059;-73
2021/07/16 11:05:54;;;;;;;5.15;3.05;;;28.40;53.20;;;;;;6192179;23;20074;-72
2021/07/16 11:08:54;;;;;;;5.55;3.72;;;28.10;54.10;;;;;;6137167;23;20048;-73
2021/07/16 11:11:24;;;;;;;7.90;3.80;;;28.20;53.90;;;;;;6220489;23;20366;-73
2021/07/16 11:13:54;;;;;;;7.07;3.70;;;28.40;53.70;;;;;;6220520;23;20017;-72
2021/07/16 11:16:43;;;;;;;6.13;3.33;;;30.30;50.30;;;;;;6222667;23;20023;-73
2021/07/16 11:19:23;;;;;;;6.93;3.28;;;31.30;46.90;;;;;;6193952;23;20024;-73
2021/07/16 11:22:09;;;;;;;9.70;3.83;;;32.20;45.10;;;;;;6196489;23;20023;-73
2021/07/16 11:24:40;;;;;;;6.72;3.28;;;31.90;45.40;;;;;;6223176;23;20032;-73
2021/07/16 11:27:17;;;;;;;5.22;2.88;;;33.00;43.40;;;;;;6191640;23;20025;-74
2021/07/16 11:29:48;;;;;;;6.25;3.45;;;33.60;41.90;;;;;;6194478;23;20036;-74
2021/07/16 11:32:19;;;;;;;6.53;3.40;;;34.00;40.70;;;;;;6193824;23;20289;-73
2021/07/16 11:34:52;;;;;;;9.07;4.32;;;35.40;38.50;;;;;;6193403;23;20017;-73
2021/07/16 11:37:25;;;;;;;6.05;3.00;;;33.40;40.70;;;;;;6192765;23;20031;-74
2021/07/16 11:39:54;;;;;;;7.13;3.05;;;31.90;44.30;;;;;;6193126;23;20040;-73
2021/07/16 11:42:21;;;;;;;6.80;3.65;;;30.40;48.00;;;;;;6191183;23;20013;-74
2021/07/16 11:44:50;;;;;;;5.97;3.55;;;29.60;50.20;;;;;;6189171;23;20028;-73
2021/07/16 11:47:18;;;;;;;8.52;3.40;;;29.10;51.90;;;;;;6192126;23;20017;-73
2021/07/16 11:49:47;;;;;;;7.93;3.33;;;31.40;47.70;;;;;;6191399;23;20029;-74
2021/07/16 11:52:18;;;;;;;7.30;3.50;;;33.70;42.80;;;;;;6195455;23;20013;-73
2021/07/16 11:54:47;;;;;;;5.32;3.47;;;35.00;39.90;;;;;;6193368;23;20356;-74
2021/07/16 11:57:16;;;;;;;7.38;3.50;;;36.50;37.10;;;;;;6189053;23;20273;-75
2021/07/16 11:59:49;;;;;;;6.70;3.30;;;37.10;35.90;;;;;;6190417;23;20029;-74
2021/07/16 12:02:19;;;;;;;6.43;3.00;;;35.70;36.30;;;;;;6179517;23;20051;-73
2021/07/16 12:04:47;;;;;;;5.90;3.50;;;33.90;39.90;;;;;;6187349;23;20025;-73
2021/07/16 12:07:16;;;;;;;6.38;2.90;;;33.10;41.10;;;;;;6185518;23;20250;-73
2021/07/16 12:09:44;;;;;;;8.23;3.58;;;31.80;43.50;;;;;;6186954;23;20068;-73
2021/07/16 12:12:14;;;;;;;5.88;3.42;;;30.80;45.70;;;;;;6186810;23;20196;-73
2021/07/16 12:14:54;;;;;;;7.25;3.90;;;29.90;47.50;;;;;;6186615;23;20309;-73
2021/07/16 12:17:24;;;;;;;6.10;3.20;;;30.40;47.20;;;;;;6184022;23;20029;-73
2021/07/16 12:19:53;;;;;;;7.03;3.33;;;30.20;48.00;;;;;;6183453;23;20029;-73
2021/07/16 12:22:23;;;;;;;4.90;3.08;;;30.10;48.90;;;;;;6183029;23;20017;-72
2021/07/16 12:24:51;;;;;;;8.63;3.58;;;29.40;50.30;;;;;;6186264;23;20024;-72
2021/07/16 12:27:19;;;;;;;6.20;3.42;;;29.00;51.60;;;;;;6183737;23;20040;-74
2021/07/16 12:29:57;;;;;;;7.07;3.60;;;28.70;52.30;;;;;;6184811;23;20029;-74
2021/07/16 12:32:38;;;;;;;7.30;3.22;;;28.60;52.70;;;;;;6182903;23;20201;-74
2021/07/16 12:35:25;;;;;;;5.40;2.97;;;31.70;46.50;;;;;;6185668;23;20045;-74
2021/07/16 12:37:59;;;;;;;5.80;3.22;;;34.30;40.80;;;;;;6189257;23;20083;-74
2021/07/16 12:40:27;;;;;;;6.45;3.40;;;36.10;37.70;;;;;;6187651;23;20025;-75
2021/07/16 12:43:06;;;;;;;6.40;3.00;;;35.30;38.30;;;;;;6188537;23;20317;-74
2021/07/16 12:45:47;;;;;;;7.13;3.00;;;36.50;35.70;;;;;;6185625;23;20033;-74
2021/07/16 12:48:20;;;;;;;5.57;2.95;;;37.10;35.20;;;;;;6187674;23;20052;-74
2021/07/16 12:50:49;;;;;;;4.88;2.95;;;38.00;33.60;;;;;;6185820;23;20025;-74
2021/07/16 12:53:30;;;;;;;4.13;2.60;;;38.30;32.20;;;;;;6186809;23;20228;-74
2021/07/16 12:55:57;;;;;;;5.47;3.00;;;38.30;32.30;;;;;;6189525;23;20028;-75
2021/07/16 12:58:34;;;;;;;5.13;3.03;;;38.70;31.80;;;;;;6187642;23;20024;-74
2021/07/16 13:01:03;;;;;;;5.93;3.05;;;36.90;34.10;;;;;;6183142;23;20220;-74